sensor_id;sensor_type;location;lat;lon;timestamp;pressure;altitude;pressure_sealevel;temperature;humidity
58662;BME280;44432;49.786;22.760;2023-01-28T00:01:30;99706.69;;;-0.96;79.10
58662;BME280;44432;49.786;22.760;2023-01-28T00:04:01;99706.85;;;-0.96;79.11
58662;BME280;44432;49.786;22.760;2023-01-28T00:06:32;99691.75;;;-1.07;79.29
58662;BME280;44432;49.786;22.760;2023-01-28T00:09:03;99709.75;;;-0.95;79.26
58662;BME280;44432;49.786;22.760;2023-01-28T00:11:34;99704.65;;;-0.94;79.26
58662;BME280;44432;49.786;22.760;2023-01-28T00:14:05;99699.42;;;-0.93;79.26
58662;BME280;44432;49.786;22.760;2023-01-28T00:16:36;99701.20;;;-0.92;79.39
58662;BME280;44432;49.786;22.760;2023-01-28T00:19:07;99702.13;;;-0.91;79.56
58662;BME280;44432;49.786;22.760;2023-01-28T00:21:37;99699.89;;;-0.89;79.46
58662;BME280;44432;49.786;22.760;2023-01-28T00:24:09;99698.92;;;-0.88;79.41
58662;BME280;44432;49.786;22.760;2023-01-28T00:26:39;99701.09;;;-0.87;79.51
58662;BME280;44432;49.786;22.760;2023-01-28T00:29:10;99701.70;;;-0.86;79.53
58662;BME280;44432;49.786;22.760;2023-01-28T00:31:41;99705.90;;;-0.84;79.40
58662;BME280;44432;49.786;22.760;2023-01-28T00:34:11;99707.73;;;-0.86;79.40
58662;BME280;44432;49.786;22.760;2023-01-28T00:36:42;99704.63;;;-0.88;79.51
58662;BME280;44432;49.786;22.760;2023-01-28T00:39:14;99702.19;;;-0.86;79.54
58662;BME280;44432;49.786;22.760;2023-01-28T00:41:45;99703.86;;;-0.85;79.62
58662;BME280;44432;49.786;22.760;2023-01-28T00:44:15;99704.60;;;-0.83;79.70
58662;BME280;44432;49.786;22.760;2023-01-28T00:46:46;99701.63;;;-0.83;79.73
58662;BME280;44432;49.786;22.760;2023-01-28T00:49:17;99701.45;;;-0.83;79.66
58662;BME280;44432;49.786;22.760;2023-01-28T00:51:47;99699.59;;;-0.85;79.69
58662;BME280;44432;49.786;22.760;2023-01-28T00:54:18;99701.48;;;-0.85;79.70
58662;BME280;44432;49.786;22.760;2023-01-28T00:56:50;99700.52;;;-0.86;79.68
58662;BME280;44432;49.786;22.760;2023-01-28T00:59:21;99702.69;;;-0.85;79.74
58662;BME280;44432;49.786;22.760;2023-01-28T01:01:52;99703.91;;;-0.85;79.71
58662;BME280;44432;49.786;22.760;2023-01-28T01:04:23;99708.77;;;-0.88;79.76
58662;BME280;44432;49.786;22.760;2023-01-28T01:06:55;99705.98;;;-0.91;79.71
58662;BME280;44432;49.786;22.760;2023-01-28T01:09:26;99714.36;;;-0.90;79.79
58662;BME280;44432;49.786;22.760;2023-01-28T01:11:57;99713.33;;;-0.90;79.84
58662;BME280;44432;49.786;22.760;2023-01-28T01:14:28;99714.83;;;-0.90;79.81
58662;BME280;44432;49.786;22.760;2023-01-28T01:16:58;99719.05;;;-0.89;79.99
58662;BME280;44432;49.786;22.760;2023-01-28T01:19:29;99717.83;;;-0.89;79.87
58662;BME280;44432;49.786;22.760;2023-01-28T01:22:00;99720.80;;;-0.89;79.93
58662;BME280;44432;49.786;22.760;2023-01-28T01:24:31;99719.02;;;-0.90;79.88
58662;BME280;44432;49.786;22.760;2023-01-28T01:27:03;99718.08;;;-0.90;80.08
58662;BME280;44432;49.786;22.760;2023-01-28T01:29:34;99720.52;;;-0.87;80.11
58662;BME280;44432;49.786;22.760;2023-01-28T01:32:05;99722.59;;;-0.87;80.07
58662;BME280;44432;49.786;22.760;2023-01-28T01:34:36;99726.08;;;-0.88;80.04
58662;BME280;44432;49.786;22.760;2023-01-28T01:37:06;99723.30;;;-0.88;80.05
58662;BME280;44432;49.786;22.760;2023-01-28T01:39:38;99722.04;;;-0.87;80.03
58662;BME280;44432;49.786;22.760;2023-01-28T01:42:11;99722.80;;;-0.86;80.13
58662;BME280;44432;49.786;22.760;2023-01-28T01:44:55;99724.80;;;-0.85;80.27
58662;BME280;44432;49.786;22.760;2023-01-28T01:47:30;99723.29;;;-0.84;80.19
58662;BME280;44432;49.786;22.760;2023-01-28T01:50:05;99723.38;;;-0.83;80.13
58662;BME280;44432;49.786;22.760;2023-01-28T01:52:37;99723.27;;;-0.83;80.16
58662;BME280;44432;49.786;22.760;2023-01-28T01:55:13;99721.60;;;-0.84;80.16
58662;BME280;44432;49.786;22.760;2023-01-28T01:57:47;99725.77;;;-0.82;80.23
58662;BME280;44432;49.786;22.760;2023-01-28T02:00:20;99722.35;;;-0.81;80.36
58662;BME280;44432;49.786;22.760;2023-01-28T02:02:51;99725.57;;;-0.80;80.28
58662;BME280;44432;49.786;22.760;2023-01-28T02:05:23;99725.77;;;-0.80;80.35
58662;BME280;44432;49.786;22.760;2023-01-28T02:07:56;99720.63;;;-0.81;80.39
58662;BME280;44432;49.786;22.760;2023-01-28T02:10:50;99724.34;;;-0.82;80.39
58662;BME280;44432;49.786;22.760;2023-01-28T02:13:24;99716.99;;;-0.83;80.43
58662;BME280;44432;49.786;22.760;2023-01-28T02:15:58;99713.27;;;-0.86;80.53
58662;BME280;44432;49.786;22.760;2023-01-28T02:18:30;99718.20;;;-0.87;80.55
58662;BME280;44432;49.786;22.760;2023-01-28T02:21:24;99712.23;;;-0.90;80.64
58662;BME280;44432;49.786;22.760;2023-01-28T02:24:09;99712.77;;;-0.90;80.62
58662;BME280;44432;49.786;22.760;2023-01-28T02:26:56;99713.90;;;-0.91;80.76
58662;BME280;44432;49.786;22.760;2023-01-28T02:29:35;99716.69;;;-0.92;80.84
58662;BME280;44432;49.786;22.760;2023-01-28T02:32:13;99717.02;;;-0.91;81.00
58662;BME280;44432;49.786;22.760;2023-01-28T02:34:49;99718.64;;;-0.90;81.03
58662;BME280;44432;49.786;22.760;2023-01-28T02:37:24;99718.65;;;-0.88;81.00
58662;BME280;44432;49.786;22.760;2023-01-28T02:39:58;99715.25;;;-0.87;81.18
58662;BME280;44432;49.786;22.760;2023-01-28T02:42:33;99718.30;;;-0.86;81.19
58662;BME280;44432;49.786;22.760;2023-01-28T02:45:12;99714.29;;;-0.87;81.28
58662;BME280;44432;49.786;22.760;2023-01-28T02:47:45;99713.94;;;-0.87;81.31
58662;BME280;44432;49.786;22.760;2023-01-28T02:50:33;99719.28;;;-0.87;81.16
58662;BME280;44432;49.786;22.760;2023-01-28T02:53:15;99717.54;;;-0.87;81.25
58662;BME280;44432;49.786;22.760;2023-01-28T02:56:16;99725.40;;;-0.86;81.28
58662;BME280;44432;49.786;22.760;2023-01-28T02:58:54;99725.10;;;-0.87;81.33
58662;BME280;44432;49.786;22.760;2023-01-28T03:01:31;99721.45;;;-0.86;81.42
58662;BME280;44432;49.786;22.760;2023-01-28T03:04:09;99723.20;;;-0.86;81.45
58662;BME280;44432;49.786;22.760;2023-01-28T03:06:46;99723.83;;;-0.86;81.49
58662;BME280;44432;49.786;22.760;2023-01-28T03:09:20;99725.63;;;-0.85;81.53
58662;BME280;44432;49.786;22.760;2023-01-28T03:11:55;99726.45;;;-0.84;81.54
58662;BME280;44432;49.786;22.760;2023-01-28T03:14:48;99725.58;;;-0.84;81.48
58662;BME280;44432;49.786;22.760;2023-01-28T03:17:40;99721.08;;;-0.84;81.70
58662;BME280;44432;49.786;22.760;2023-01-28T03:20:36;99721.05;;;-0.82;81.69
58662;BME280;44432;49.786;22.760;2023-01-28T03:23:30;99716.29;;;-0.81;81.56
58662;BME280;44432;49.786;22.760;2023-01-28T03:26:20;99714.09;;;-0.79;81.72
58662;BME280;44432;49.786;22.760;2023-01-28T03:29:13;99717.30;;;-0.76;81.80
58662;BME280;44432;49.786;22.760;2023-01-28T03:32:03;99717.39;;;-0.73;81.63
58662;BME280;44432;49.786;22.760;2023-01-28T03:34:52;99720.84;;;-0.71;81.79
58662;BME280;44432;49.786;22.760;2023-01-28T03:37:40;99721.44;;;-0.70;81.52
58662;BME280;44432;49.786;22.760;2023-01-28T03:40:13;99720.79;;;-0.71;81.72
58662;BME280;44432;49.786;22.760;2023-01-28T03:42:43;99714.81;;;-0.70;81.66
58662;BME280;44432;49.786;22.760;2023-01-28T03:45:15;99714.61;;;-0.69;81.63
58662;BME280;44432;49.786;22.760;2023-01-28T03:47:46;99710.34;;;-0.68;81.73
58662;BME280;44432;49.786;22.760;2023-01-28T03:50:17;99712.61;;;-0.68;81.74
58662;BME280;44432;49.786;22.760;2023-01-28T03:52:47;99711.70;;;-0.70;81.75
58662;BME280;44432;49.786;22.760;2023-01-28T03:55:18;99716.17;;;-0.71;81.52
58662;BME280;44432;49.786;22.760;2023-01-28T03:57:49;99717.87;;;-0.75;81.60
58662;BME280;44432;49.786;22.760;2023-01-28T04:00:20;99719.15;;;-0.76;81.80
58662;BME280;44432;49.786;22.760;2023-01-28T04:02:51;99719.81;;;-0.75;81.82
58662;BME280;44432;49.786;22.760;2023-01-28T04:05:22;99727.23;;;-0.75;81.86
58662;BME280;44432;49.786;22.760;2023-01-28T04:07:56;99727.34;;;-0.76;81.91
58662;BME280;44432;49.786;22.760;2023-01-28T04:10:25;99724.46;;;-0.77;81.81
58662;BME280;44432;49.786;22.760;2023-01-28T04:12:56;99726.42;;;-0.78;81.80
58662;BME280;44432;49.786;22.760;2023-01-28T04:15:26;99730.90;;;-0.78;81.96
58662;BME280;44432;49.786;22.760;2023-01-28T04:17:59;99730.12;;;-0.77;82.00
58662;BME280;44432;49.786;22.760;2023-01-28T04:20:30;99734.40;;;-0.76;81.86
58662;BME280;44432;49.786;22.760;2023-01-28T04:23:01;99735.74;;;-0.76;81.68
58662;BME280;44432;49.786;22.760;2023-01-28T04:25:32;99737.16;;;-0.76;81.77
58662;BME280;44432;49.786;22.760;2023-01-28T04:28:03;99735.98;;;-0.77;81.59
58662;BME280;44432;49.786;22.760;2023-01-28T04:30:33;99740.63;;;-0.76;81.77
58662;BME280;44432;49.786;22.760;2023-01-28T04:33:04;99737.90;;;-0.75;81.74
58662;BME280;44432;49.786;22.760;2023-01-28T04:35:35;99745.79;;;-0.74;81.69
58662;BME280;44432;49.786;22.760;2023-01-28T04:38:06;99740.92;;;-0.76;81.53
58662;BME280;44432;49.786;22.760;2023-01-28T04:40:36;99737.90;;;-0.77;81.61
58662;BME280;44432;49.786;22.760;2023-01-28T04:43:07;99736.15;;;-0.77;81.58
58662;BME280;44432;49.786;22.760;2023-01-28T04:45:38;99734.77;;;-0.76;81.66
58662;BME280;44432;49.786;22.760;2023-01-28T04:48:09;99736.51;;;-0.75;81.86
58662;BME280;44432;49.786;22.760;2023-01-28T04:50:39;99741.35;;;-0.75;81.69
58662;BME280;44432;49.786;22.760;2023-01-28T04:53:10;99740.34;;;-0.75;81.57
58662;BME280;44432;49.786;22.760;2023-01-28T04:55:43;99738.64;;;-0.75;81.54
58662;BME280;44432;49.786;22.760;2023-01-28T04:58:13;99743.12;;;-0.75;81.63
58662;BME280;44432;49.786;22.760;2023-01-28T05:00:44;99741.39;;;-0.77;81.67
58662;BME280;44432;49.786;22.760;2023-01-28T05:03:15;99743.07;;;-0.79;81.76
58662;BME280;44432;49.786;22.760;2023-01-28T05:05:45;99740.13;;;-0.78;81.84
58662;BME280;44432;49.786;22.760;2023-01-28T05:08:16;99741.34;;;-0.79;81.83
58662;BME280;44432;49.786;22.760;2023-01-28T05:10:47;99740.97;;;-0.78;81.64
58662;BME280;44432;49.786;22.760;2023-01-28T05:13:17;99746.00;;;-0.77;81.77
58662;BME280;44432;49.786;22.760;2023-01-28T05:15:52;99748.38;;;-0.78;81.60
58662;BME280;44432;49.786;22.760;2023-01-28T05:18:23;99752.86;;;-0.80;81.74
58662;BME280;44432;49.786;22.760;2023-01-28T05:20:54;99752.95;;;-0.79;81.71
58662;BME280;44432;49.786;22.760;2023-01-28T05:23:24;99756.64;;;-0.77;81.79
58662;BME280;44432;49.786;22.760;2023-01-28T05:25:55;99754.81;;;-0.77;81.64
58662;BME280;44432;49.786;22.760;2023-01-28T05:28:26;99754.86;;;-0.77;81.51
58662;BME280;44432;49.786;22.760;2023-01-28T05:31:01;99757.26;;;-0.79;81.49
58662;BME280;44432;49.786;22.760;2023-01-28T05:33:31;99761.20;;;-0.76;81.69
58662;BME280;44432;49.786;22.760;2023-01-28T05:36:02;99760.95;;;-0.76;81.74
58662;BME280;44432;49.786;22.760;2023-01-28T05:38:34;99764.86;;;-0.75;81.59
58662;BME280;44432;49.786;22.760;2023-01-28T05:41:05;99768.47;;;-0.75;81.46
58662;BME280;44432;49.786;22.760;2023-01-28T05:43:35;99765.59;;;-0.75;81.43
58662;BME280;44432;49.786;22.760;2023-01-28T05:46:06;99760.88;;;-0.76;81.56
58662;BME280;44432;49.786;22.760;2023-01-28T05:48:37;99764.23;;;-0.77;81.49
58662;BME280;44432;49.786;22.760;2023-01-28T05:51:07;99763.42;;;-0.78;81.48
58662;BME280;44432;49.786;22.760;2023-01-28T05:53:38;99759.85;;;-0.79;81.56
58662;BME280;44432;49.786;22.760;2023-01-28T05:56:09;99760.64;;;-0.78;81.69
58662;BME280;44432;49.786;22.760;2023-01-28T05:58:40;99760.91;;;-0.75;81.77
58662;BME280;44432;49.786;22.760;2023-01-28T06:01:10;99762.69;;;-0.73;81.45
58662;BME280;44432;49.786;22.760;2023-01-28T06:03:41;99769.71;;;-0.73;81.55
58662;BME280;44432;49.786;22.760;2023-01-28T06:06:12;99768.48;;;-0.73;81.59
58662;BME280;44432;49.786;22.760;2023-01-28T06:08:42;99771.70;;;-0.72;81.55
58662;BME280;44432;49.786;22.760;2023-01-28T06:11:13;99776.65;;;-0.71;81.54
58662;BME280;44432;49.786;22.760;2023-01-28T06:13:44;99776.46;;;-0.71;81.61
58662;BME280;44432;49.786;22.760;2023-01-28T06:16:14;99779.77;;;-0.71;81.48
58662;BME280;44432;49.786;22.760;2023-01-28T06:18:45;99786.85;;;-0.73;81.44
58662;BME280;44432;49.786;22.760;2023-01-28T06:21:16;99793.66;;;-0.74;81.20
58662;BME280;44432;49.786;22.760;2023-01-28T06:23:47;99797.02;;;-0.75;81.52
58662;BME280;44432;49.786;22.760;2023-01-28T06:26:17;99801.23;;;-0.74;81.49
58662;BME280;44432;49.786;22.760;2023-01-28T06:28:48;99800.91;;;-0.72;81.49
58662;BME280;44432;49.786;22.760;2023-01-28T06:31:19;99803.86;;;-0.70;81.43
58662;BME280;44432;49.786;22.760;2023-01-28T06:33:49;99807.52;;;-0.70;81.33
58662;BME280;44432;49.786;22.760;2023-01-28T06:36:20;99804.61;;;-0.73;81.27
58662;BME280;44432;49.786;22.760;2023-01-28T06:38:51;99805.52;;;-0.73;81.62
58662;BME280;44432;49.786;22.760;2023-01-28T06:41:22;99802.52;;;-0.74;81.38
58662;BME280;44432;49.786;22.760;2023-01-28T06:43:52;99805.77;;;-0.74;81.53
58662;BME280;44432;49.786;22.760;2023-01-28T06:46:23;99805.70;;;-0.73;81.60
58662;BME280;44432;49.786;22.760;2023-01-28T06:48:54;99808.59;;;-0.73;81.30
58662;BME280;44432;49.786;22.760;2023-01-28T06:51:24;99812.83;;;-0.72;81.46
58662;BME280;44432;49.786;22.760;2023-01-28T06:53:55;99815.84;;;-0.71;81.34
58662;BME280;44432;49.786;22.760;2023-01-28T06:56:26;99816.77;;;-0.71;81.39
58662;BME280;44432;49.786;22.760;2023-01-28T06:58:57;99823.92;;;-0.70;81.52
58662;BME280;44432;49.786;22.760;2023-01-28T07:01:27;99829.80;;;-0.68;81.55
58662;BME280;44432;49.786;22.760;2023-01-28T07:03:58;99830.36;;;-0.67;81.36
58662;BME280;44432;49.786;22.760;2023-01-28T07:06:29;99831.61;;;-0.67;81.23
58662;BME280;44432;49.786;22.760;2023-01-28T07:09:00;99835.10;;;-0.67;81.18
58662;BME280;44432;49.786;22.760;2023-01-28T07:11:31;99833.36;;;-0.69;81.17
58662;BME280;44432;49.786;22.760;2023-01-28T07:14:01;99839.83;;;-0.68;81.43
58662;BME280;44432;49.786;22.760;2023-01-28T07:16:33;99844.74;;;-0.67;81.26
58662;BME280;44432;49.786;22.760;2023-01-28T07:19:04;99846.42;;;-0.64;81.26
58662;BME280;44432;49.786;22.760;2023-01-28T07:21:35;99847.64;;;-0.62;81.32
58662;BME280;44432;49.786;22.760;2023-01-28T07:24:06;99853.34;;;-0.62;81.17
58662;BME280;44432;49.786;22.760;2023-01-28T07:26:37;99859.52;;;-0.61;81.31
58662;BME280;44432;49.786;22.760;2023-01-28T07:29:09;99862.17;;;-0.60;81.30
58662;BME280;44432;49.786;22.760;2023-01-28T07:31:39;99863.53;;;-0.57;81.27
58662;BME280;44432;49.786;22.760;2023-01-28T07:34:10;99861.12;;;-0.54;81.34
58662;BME280;44432;49.786;22.760;2023-01-28T07:36:41;99858.70;;;-0.51;81.27
58662;BME280;44432;49.786;22.760;2023-01-28T07:39:12;99864.57;;;-0.47;81.05
58662;BME280;44432;49.786;22.760;2023-01-28T07:41:42;99863.48;;;-0.47;81.04
58662;BME280;44432;49.786;22.760;2023-01-28T07:44:13;99866.41;;;-0.45;81.23
58662;BME280;44432;49.786;22.760;2023-01-28T07:46:44;99868.55;;;-0.43;80.98
58662;BME280;44432;49.786;22.760;2023-01-28T07:49:15;99870.41;;;-0.43;80.92
58662;BME280;44432;49.786;22.760;2023-01-28T07:51:46;99870.44;;;-0.43;80.87
58662;BME280;44432;49.786;22.760;2023-01-28T07:54:18;99867.33;;;-0.43;80.76
58662;BME280;44432;49.786;22.760;2023-01-28T07:56:49;99862.90;;;-0.44;80.82
58662;BME280;44432;49.786;22.760;2023-01-28T07:59:20;99865.15;;;-0.42;80.89
58662;BME280;44432;49.786;22.760;2023-01-28T08:01:51;99866.56;;;-0.40;80.85
58662;BME280;44432;49.786;22.760;2023-01-28T08:04:22;99865.30;;;-0.40;80.77
58662;BME280;44432;49.786;22.760;2023-01-28T08:06:53;99863.54;;;-0.37;80.75
58662;BME280;44432;49.786;22.760;2023-01-28T08:09:25;99865.16;;;-0.36;80.76
58662;BME280;44432;49.786;22.760;2023-01-28T08:11:56;99868.52;;;-0.35;80.78
58662;BME280;44432;49.786;22.760;2023-01-28T08:14:26;99868.66;;;-0.34;80.55
58662;BME280;44432;49.786;22.760;2023-01-28T08:16:57;99868.21;;;-0.31;80.62
58662;BME280;44432;49.786;22.760;2023-01-28T08:19:28;99873.63;;;-0.29;80.28
58662;BME280;44432;49.786;22.760;2023-01-28T08:21:59;99870.59;;;-0.30;80.26
58662;BME280;44432;49.786;22.760;2023-01-28T08:24:29;99872.52;;;-0.26;80.51
58662;BME280;44432;49.786;22.760;2023-01-28T08:27:00;99875.02;;;-0.25;80.31
58662;BME280;44432;49.786;22.760;2023-01-28T08:29:31;99874.64;;;-0.23;80.25
58662;BME280;44432;49.786;22.760;2023-01-28T08:32:02;99872.27;;;-0.20;80.20
58662;BME280;44432;49.786;22.760;2023-01-28T08:34:32;99876.91;;;-0.13;80.07
58662;BME280;44432;49.786;22.760;2023-01-28T08:37:03;99875.20;;;-0.11;79.71
58662;BME280;44432;49.786;22.760;2023-01-28T08:39:34;99878.16;;;-0.12;79.74
58662;BME280;44432;49.786;22.760;2023-01-28T08:42:05;99879.46;;;-0.09;79.70
58662;BME280;44432;49.786;22.760;2023-01-28T08:44:36;99877.36;;;-0.04;79.77
58662;BME280;44432;49.786;22.760;2023-01-28T08:47:07;99881.81;;;0.02;79.71
58662;BME280;44432;49.786;22.760;2023-01-28T08:49:37;99881.05;;;0.05;79.54
58662;BME280;44432;49.786;22.760;2023-01-28T08:52:08;99884.42;;;0.06;79.45
58662;BME280;44432;49.786;22.760;2023-01-28T08:54:39;99885.50;;;0.10;79.34
58662;BME280;44432;49.786;22.760;2023-01-28T08:57:10;99884.27;;;0.08;79.02
58662;BME280;44432;49.786;22.760;2023-01-28T08:59:41;99891.08;;;0.07;79.07
58662;BME280;44432;49.786;22.760;2023-01-28T09:02:14;99889.22;;;0.11;79.29
58662;BME280;44432;49.786;22.760;2023-01-28T09:04:45;99890.55;;;0.17;79.45
58662;BME280;44432;49.786;22.760;2023-01-28T09:07:16;99886.89;;;0.22;79.14
58662;BME280;44432;49.786;22.760;2023-01-28T09:09:47;99885.20;;;0.25;79.04
58662;BME280;44432;49.786;22.760;2023-01-28T09:12:17;99881.26;;;0.30;78.71
58662;BME280;44432;49.786;22.760;2023-01-28T09:14:48;99884.78;;;0.30;78.13
58662;BME280;44432;49.786;22.760;2023-01-28T09:17:19;99882.10;;;0.29;78.28
58662;BME280;44432;49.786;22.760;2023-01-28T09:19:50;99883.86;;;0.30;78.26
58662;BME280;44432;49.786;22.760;2023-01-28T09:22:20;99883.67;;;0.33;78.17
58662;BME280;44432;49.786;22.760;2023-01-28T09:24:51;99880.45;;;0.32;78.03
58662;BME280;44432;49.786;22.760;2023-01-28T09:27:22;99884.33;;;0.33;78.25
58662;BME280;44432;49.786;22.760;2023-01-28T09:29:53;99882.02;;;0.36;78.18
58662;BME280;44432;49.786;22.760;2023-01-28T09:32:23;99883.69;;;0.39;78.04
58662;BME280;44432;49.786;22.760;2023-01-28T09:34:54;99884.35;;;0.41;77.81
58662;BME280;44432;49.786;22.760;2023-01-28T09:37:25;99885.16;;;0.36;77.48
58662;BME280;44432;49.786;22.760;2023-01-28T09:39:56;99884.67;;;0.31;77.47
58662;BME280;44432;49.786;22.760;2023-01-28T09:42:48;99884.71;;;0.33;77.90
58662;BME280;44432;49.786;22.760;2023-01-28T09:45:26;99887.20;;;0.40;77.84
58662;BME280;44432;49.786;22.760;2023-01-28T09:48:02;99883.34;;;0.43;77.74
58662;BME280;44432;49.786;22.760;2023-01-28T09:50:36;99883.84;;;0.47;77.88
58662;BME280;44432;49.786;22.760;2023-01-28T09:53:11;99881.02;;;0.53;78.14
58662;BME280;44432;49.786;22.760;2023-01-28T09:55:45;99883.66;;;0.59;77.73
58662;BME280;44432;49.786;22.760;2023-01-28T09:58:18;99877.64;;;0.60;77.64
58662;BME280;44432;49.786;22.760;2023-01-28T10:00:54;99880.19;;;0.63;77.44
58662;BME280;44432;49.786;22.760;2023-01-28T10:03:42;99882.55;;;0.61;76.86
58662;BME280;44432;49.786;22.760;2023-01-28T10:06:21;99878.98;;;0.57;77.06
58662;BME280;44432;49.786;22.760;2023-01-28T10:09:25;99872.16;;;0.53;77.15
58662;BME280;44432;49.786;22.760;2023-01-28T10:12:18;99874.37;;;0.64;77.40
58662;BME280;44432;49.786;22.760;2023-01-28T10:15:02;99869.19;;;0.72;77.38
58662;BME280;44432;49.786;22.760;2023-01-28T10:17:42;99867.80;;;0.74;76.90
58662;BME280;44432;49.786;22.760;2023-01-28T10:20:20;99868.58;;;0.73;76.72
58662;BME280;44432;49.786;22.760;2023-01-28T10:22:57;99871.48;;;0.69;76.90
58662;BME280;44432;49.786;22.760;2023-01-28T10:25:31;99870.52;;;0.67;76.50
58662;BME280;44432;49.786;22.760;2023-01-28T10:28:04;99868.38;;;0.65;76.59
58662;BME280;44432;49.786;22.760;2023-01-28T10:30:45;99868.63;;;0.62;76.58
58662;BME280;44432;49.786;22.760;2023-01-28T10:33:21;99868.57;;;0.61;76.65
58662;BME280;44432;49.786;22.760;2023-01-28T10:35:54;99873.02;;;0.56;76.45
58662;BME280;44432;49.786;22.760;2023-01-28T10:38:27;99870.38;;;0.44;76.35
58662;BME280;44432;49.786;22.760;2023-01-28T10:40:59;99869.17;;;0.38;76.53
58662;BME280;44432;49.786;22.760;2023-01-28T10:43:34;99869.59;;;0.36;76.67
58662;BME280;44432;49.786;22.760;2023-01-28T10:46:11;99868.84;;;0.36;77.01
58662;BME280;44432;49.786;22.760;2023-01-28T10:48:46;99866.34;;;0.33;77.02
58662;BME280;44432;49.786;22.760;2023-01-28T10:51:28;99861.02;;;0.32;77.09
58662;BME280;44432;49.786;22.760;2023-01-28T10:53:59;99863.09;;;0.32;77.11
58662;BME280;44432;49.786;22.760;2023-01-28T10:56:31;99862.27;;;0.32;76.93
58662;BME280;44432;49.786;22.760;2023-01-28T10:59:05;99860.01;;;0.28;76.62
58662;BME280;44432;49.786;22.760;2023-01-28T11:01:42;99858.17;;;0.25;76.77
58662;BME280;44432;49.786;22.760;2023-01-28T11:04:21;99856.33;;;0.29;77.18
58662;BME280;44432;49.786;22.760;2023-01-28T11:07:01;99847.10;;;0.35;77.14
58662;BME280;44432;49.786;22.760;2023-01-28T11:09:34;99842.66;;;0.41;76.79
58662;BME280;44432;49.786;22.760;2023-01-28T11:12:16;99845.34;;;0.45;76.87
58662;BME280;44432;49.786;22.760;2023-01-28T11:14:50;99841.07;;;0.54;76.93
58662;BME280;44432;49.786;22.760;2023-01-28T11:17:23;99842.07;;;0.63;76.87
58662;BME280;44432;49.786;22.760;2023-01-28T11:19:55;99841.84;;;0.65;76.22
58662;BME280;44432;49.786;22.760;2023-01-28T11:22:32;99845.56;;;0.63;75.98
58662;BME280;44432;49.786;22.760;2023-01-28T11:25:13;99841.81;;;0.58;75.97
58662;BME280;44432;49.786;22.760;2023-01-28T11:27:49;99843.40;;;0.56;75.65
58662;BME280;44432;49.786;22.760;2023-01-28T11:30:25;99836.67;;;0.55;75.87
58662;BME280;44432;49.786;22.760;2023-01-28T11:32:59;99838.13;;;0.60;76.04
58662;BME280;44432;49.786;22.760;2023-01-28T11:35:32;99835.23;;;0.66;75.82
58662;BME280;44432;49.786;22.760;2023-01-28T11:38:10;99835.36;;;0.64;75.69
58662;BME280;44432;49.786;22.760;2023-01-28T11:40:51;99828.06;;;0.66;75.67
58662;BME280;44432;49.786;22.760;2023-01-28T11:43:24;99829.69;;;0.72;75.86
58662;BME280;44432;49.786;22.760;2023-01-28T11:46:03;99827.69;;;0.78;75.76
58662;BME280;44432;49.786;22.760;2023-01-28T11:48:43;99826.63;;;0.84;75.64
58662;BME280;44432;49.786;22.760;2023-01-28T11:51:31;99824.40;;;0.92;75.36
58662;BME280;44432;49.786;22.760;2023-01-28T11:54:18;99821.23;;;0.96;75.06
58662;BME280;44432;49.786;22.760;2023-01-28T11:57:13;99823.40;;;1.03;75.07
58662;BME280;44432;49.786;22.760;2023-01-28T11:59:48;99823.38;;;1.11;74.76
58662;BME280;44432;49.786;22.760;2023-01-28T12:02:36;99821.42;;;1.00;74.11
58662;BME280;44432;49.786;22.760;2023-01-28T12:05:35;99822.16;;;0.96;74.22
58662;BME280;44432;49.786;22.760;2023-01-28T12:08:11;99823.23;;;0.95;74.08
58662;BME280;44432;49.786;22.760;2023-01-28T12:10:56;99818.88;;;0.91;73.98
58662;BME280;44432;49.786;22.760;2023-01-28T12:13:45;99817.63;;;0.92;74.21
58662;BME280;44432;49.786;22.760;2023-01-28T12:16:30;99814.02;;;0.94;74.30
58662;BME280;44432;49.786;22.760;2023-01-28T12:19:19;99816.55;;;0.98;74.30
58662;BME280;44432;49.786;22.760;2023-01-28T12:22:07;99817.23;;;1.03;74.23
58662;BME280;44432;49.786;22.760;2023-01-28T12:25:04;99816.41;;;1.05;74.12
58662;BME280;44432;49.786;22.760;2023-01-28T12:27:46;99822.13;;;1.06;73.87
58662;BME280;44432;49.786;22.760;2023-01-28T12:30:26;99819.20;;;1.00;73.56
58662;BME280;44432;49.786;22.760;2023-01-28T12:33:27;99830.76;;;0.94;73.27
58662;BME280;44432;49.786;22.760;2023-01-28T12:36:07;99831.39;;;0.78;72.96
58662;BME280;44432;49.786;22.760;2023-01-28T12:38:49;99826.88;;;0.76;73.73
58662;BME280;44432;49.786;22.760;2023-01-28T12:41:27;99826.81;;;0.84;74.23
58662;BME280;44432;49.786;22.760;2023-01-28T12:44:01;99827.47;;;0.92;73.97
58662;BME280;44432;49.786;22.760;2023-01-28T12:46:41;99832.86;;;0.96;73.84
58662;BME280;44432;49.786;22.760;2023-01-28T12:49:20;99833.14;;;1.01;73.77
58662;BME280;44432;49.786;22.760;2023-01-28T12:51:58;99839.09;;;1.06;73.77
58662;BME280;44432;49.786;22.760;2023-01-28T12:54:34;99835.08;;;0.98;73.08
58662;BME280;44432;49.786;22.760;2023-01-28T12:57:11;99839.29;;;0.90;73.16
58662;BME280;44432;49.786;22.760;2023-01-28T12:59:47;99834.39;;;0.77;72.80
58662;BME280;44432;49.786;22.760;2023-01-28T13:02:25;99844.99;;;0.67;72.91
58662;BME280;44432;49.786;22.760;2023-01-28T13:05:06;99845.99;;;0.58;73.01
58662;BME280;44432;49.786;22.760;2023-01-28T13:07:42;99843.95;;;0.48;73.25
58662;BME280;44432;49.786;22.760;2023-01-28T13:10:21;99840.66;;;0.42;73.40
58662;BME280;44432;49.786;22.760;2023-01-28T13:12:55;99844.73;;;0.44;73.89
58662;BME280;44432;49.786;22.760;2023-01-28T13:15:27;99848.94;;;0.48;74.00
58662;BME280;44432;49.786;22.760;2023-01-28T13:18:01;99850.17;;;0.53;73.79
58662;BME280;44432;49.786;22.760;2023-01-28T13:20:37;99850.75;;;0.53;73.57
58662;BME280;44432;49.786;22.760;2023-01-28T13:23:25;99854.46;;;0.56;73.53
58662;BME280;44432;49.786;22.760;2023-01-28T13:25:57;99857.10;;;0.54;73.24
58662;BME280;44432;49.786;22.760;2023-01-28T13:28:38;99855.16;;;0.46;72.86
58662;BME280;44432;49.786;22.760;2023-01-28T13:31:11;99856.15;;;0.39;72.70